Weather at Auburn University Regional Airport

Public forecast

Using degrees Fahrenheit for public forecast. Weather courtesy of forecast.io.

Current aviation weather report (METAR) for Auburn University Regional Airport

Retrieved 2020/11/23 14:56 UTC (37 minutes ago):

KAUO 231456Z AUTO 36009KT 10SM CLR 11/06 A3027 RMK AO2 SLP276 T01110056 51019

Closest aviation forecast (TAF) to Auburn University Regional Airport

Closest forecast is Columbus Metropolitan Airport, 25.7 nm (47.7 km) ESE. Retrieved 2020/11/23 12:27 UTC (3 hours ago):

TAF KCSG 231124Z 2312/2412 35010G17KT P6SM SCT018 TEMPO 2312/2314 BKN018 FM231500 36010KT P6SM SKC FM232300 02004KT P6SM SKC